createdAt,value
2022-11-10T00:01:32.033Z,43.47
2022-11-10T00:03:35.918Z,43.77
2022-11-10T00:05:39.074Z,44.45
2022-11-10T00:07:41.458Z,43.75
2022-11-10T00:09:43.276Z,41.85
2022-11-10T00:11:46.378Z,43.03
2022-11-10T00:14:07.432Z,44.65
2022-11-10T00:16:29.051Z,42.60
2022-11-10T00:18:31.260Z,42.92
2022-11-10T00:20:33.084Z,44.83
2022-11-10T00:22:35.846Z,42.70
2022-11-10T00:24:38.026Z,44.25
2022-11-10T00:26:39.840Z,44.30
2022-11-10T00:28:42.393Z,44.47
2022-11-10T00:30:46.775Z,44.63
2022-11-10T00:32:48.971Z,42.40
2022-11-10T00:34:50.810Z,43.90
2022-11-10T00:36:53.091Z,44.40
2022-11-10T00:38:55.123Z,44.40
2022-11-10T00:40:58.943Z,45.08
2022-11-10T00:43:01.480Z,44.58
2022-11-10T00:45:03.532Z,43.10
2022-11-10T00:47:05.733Z,43.07
2022-11-10T00:49:07.895Z,44.03
2022-11-10T00:51:26.319Z,44.95
2022-11-10T00:53:28.124Z,43.38
2022-11-10T00:55:30.408Z,42.95
2022-11-10T00:57:32.327Z,43.45
2022-11-10T00:59:34.209Z,46.33
2022-11-10T01:01:37.091Z,45.25
2022-11-10T01:03:39.223Z,44.85
2022-11-10T01:05:41.862Z,44.27
2022-11-10T01:09:45.817Z,43.88
2022-11-10T01:11:47.610Z,45.17
2022-11-10T01:13:51.739Z,43.03
2022-11-10T01:15:53.533Z,44.33
2022-11-10T01:17:56.890Z,43.72
2022-11-10T01:19:59.012Z,44.65
2022-11-10T01:22:01.873Z,45.72
2022-11-10T01:24:03.896Z,44.03
2022-11-10T01:26:07.192Z,45.05
2022-11-10T01:30:11.364Z,43.67
2022-11-10T01:32:13.521Z,43.97
2022-11-10T01:34:15.623Z,44.23
2022-11-10T01:36:17.729Z,43.30
2022-11-10T01:38:19.930Z,42.58
2022-11-10T01:40:21.818Z,44.40
2022-11-10T01:42:28.973Z,46.13
2022-11-10T01:44:31.166Z,45.85
2022-11-10T01:46:33.092Z,43.80
2022-11-10T01:48:47.053Z,43.90
2022-11-10T01:50:49.621Z,44.50
2022-11-10T01:52:55.049Z,43.70
2022-11-10T01:54:56.933Z,43.17
2022-11-10T01:57:05.261Z,43.50
2022-11-10T01:59:12.200Z,42.85
2022-11-10T02:01:14.536Z,43.47
2022-11-10T02:03:29.488Z,41.85
2022-11-10T02:05:31.976Z,42.80
2022-11-10T02:07:34.368Z,43.75
2022-11-10T02:09:36.871Z,44.03
2022-11-10T02:11:40.481Z,43.40
2022-11-10T02:13:43.152Z,43.58
2022-11-10T02:17:48.347Z,41.10
2022-11-10T02:19:51.670Z,43.20
2022-11-10T02:21:53.890Z,42.47
2022-11-10T02:23:55.754Z,44.33
2022-11-10T02:25:58.528Z,43.88
2022-11-10T02:28:00.687Z,43.25
2022-11-10T02:30:05.247Z,44.78
2022-11-10T02:32:07.104Z,44.50
2022-11-10T02:34:09.279Z,42.75
2022-11-10T02:36:11.697Z,42.50
2022-11-10T02:38:14.359Z,43.70
2022-11-10T02:42:18.318Z,42.58
2022-11-10T02:44:20.616Z,43.85
2022-11-10T02:46:23.121Z,43.20
2022-11-10T02:48:24.919Z,42.93
2022-11-10T02:50:27.037Z,41.78
2022-11-10T02:52:29.505Z,44.40
2022-11-10T02:54:31.352Z,43.90
2022-11-10T02:56:33.149Z,43.63
2022-11-10T02:58:35.286Z,42.33
2022-11-10T03:00:37.154Z,42.05
2022-11-10T03:02:39.269Z,45.40
2022-11-10T03:04:41.675Z,43.88
2022-11-10T03:06:43.883Z,45.60
2022-11-10T03:08:46.292Z,43.55
2022-11-10T03:10:48.531Z,43.72
2022-11-10T03:12:55.420Z,45.30
2022-11-10T03:14:57.460Z,43.67
2022-11-10T03:16:59.829Z,44.15
2022-11-10T03:19:01.721Z,43.27
2022-11-10T03:21:03.659Z,44.80
2022-11-10T03:23:06.360Z,41.45
2022-11-10T03:25:09.041Z,42.47
2022-11-10T03:27:10.822Z,43.95
2022-11-10T03:29:12.962Z,42.87
2022-11-10T03:31:14.743Z,41.90
2022-11-10T03:33:17.022Z,41.88
2022-11-10T03:35:19.255Z,43.20
2022-11-10T03:37:21.042Z,40.63
2022-11-10T03:39:24.438Z,42.53
2022-11-10T03:41:26.602Z,43.53
2022-11-10T03:43:28.393Z,43.03
2022-11-10T03:45:30.198Z,43.78
2022-11-10T03:47:32.401Z,45.15
2022-11-10T03:49:34.213Z,43.13
2022-11-10T03:51:36.022Z,43.20
2022-11-10T03:53:38.198Z,42.40
2022-11-10T03:55:39.988Z,42.95
2022-11-10T03:57:41.859Z,43.38
2022-11-10T03:59:44.027Z,42.33
2022-11-10T04:01:46.138Z,44.50
2022-11-10T04:03:51.527Z,44.13
2022-11-10T04:06:12.313Z,43.75
2022-11-10T04:08:35.407Z,43.28
2022-11-10T04:10:37.351Z,44.22
2022-11-10T04:12:57.889Z,43.38
2022-11-10T04:15:18.519Z,44.38
2022-11-10T04:17:20.368Z,43.28
2022-11-10T04:19:22.740Z,43.60
2022-11-10T04:21:24.542Z,42.77
2022-11-10T04:23:35.002Z,43.67
2022-11-10T04:25:57.116Z,42.67
2022-11-10T04:27:58.969Z,42.53
2022-11-10T04:30:00.770Z,43.20
2022-11-10T04:32:03.046Z,44.15
2022-11-10T04:34:07.333Z,41.95
2022-11-10T04:36:11.291Z,42.15
2022-11-10T04:38:13.473Z,41.83
2022-11-10T04:40:15.682Z,43.78
2022-11-10T04:42:17.521Z,44.47
2022-11-10T04:44:19.675Z,43.15
2022-11-10T04:46:34.952Z,42.97
2022-11-10T04:48:36.873Z,43.78
2022-11-10T04:50:39.132Z,45.05
2022-11-10T04:52:40.929Z,43.88
2022-11-10T04:54:43.082Z,44.47
2022-11-10T04:56:45.275Z,43.30
2022-11-10T04:58:48.236Z,43.80
2022-11-10T05:02:52.211Z,42.25
2022-11-10T05:04:54.060Z,44.38
2022-11-10T05:06:56.019Z,44.25
2022-11-10T05:08:58.220Z,43.63
2022-11-10T05:11:00.277Z,44.55
2022-11-10T05:13:03.340Z,45.53
2022-11-10T05:15:06.270Z,45.95
2022-11-10T05:17:08.060Z,45.22
2022-11-10T05:19:10.036Z,46.83
2022-11-10T05:21:12.142Z,45.78
2022-11-10T05:23:32.386Z,46.13
2022-11-10T05:25:36.445Z,45.88
2022-11-10T05:27:38.657Z,45.53
2022-11-10T05:29:40.457Z,46.05
2022-11-10T05:31:42.288Z,46.30
2022-11-10T05:33:44.641Z,47.67
2022-11-10T05:35:49.017Z,47.22
2022-11-10T05:37:51.604Z,46.53
2022-11-10T05:39:53.798Z,48.22
2022-11-10T05:41:55.683Z,46.78
2022-11-10T05:43:57.459Z,47.88
2022-11-10T05:45:59.948Z,49.35
2022-11-10T05:48:01.782Z,48.70
2022-11-10T05:50:04.739Z,46.42
2022-11-10T05:52:06.868Z,47.45
2022-11-10T05:54:09.099Z,47.30
2022-11-10T05:56:10.862Z,48.97
2022-11-10T05:58:13.587Z,48.08
2022-11-10T06:00:18.349Z,48.08
2022-11-10T06:02:20.348Z,48.67
2022-11-10T06:04:22.649Z,47.72
2022-11-10T06:06:25.044Z,49.58
2022-11-10T06:08:26.864Z,46.17
2022-11-10T06:10:29.290Z,49.67
2022-11-10T06:12:31.128Z,50.07
2022-11-10T06:14:33.014Z,47.53
2022-11-10T06:16:35.386Z,49.42
2022-11-10T06:18:37.170Z,49.40
2022-11-10T06:20:39.068Z,48.80
2022-11-10T06:22:41.624Z,51.00
2022-11-10T06:24:43.467Z,50.15
2022-11-10T06:26:45.288Z,49.05
2022-11-10T06:28:47.471Z,50.25
2022-11-10T06:30:49.268Z,49.70
2022-11-10T06:32:51.179Z,46.75
2022-11-10T06:34:57.838Z,46.92
2022-11-10T06:37:02.117Z,48.22
2022-11-10T06:39:07.073Z,47.40
2022-11-10T06:41:09.721Z,47.92
2022-11-10T06:43:11.882Z,46.22
2022-11-10T06:45:13.719Z,47.65
2022-11-10T06:47:16.464Z,47.90
2022-11-10T06:49:18.432Z,50.17
2022-11-10T06:51:20.225Z,48.72
2022-11-10T06:53:26.861Z,47.15
2022-11-10T06:55:29.525Z,47.10
2022-11-10T06:57:38.142Z,48.92
2022-11-10T06:59:40.269Z,45.53
2022-11-10T07:01:42.247Z,46.35
2022-11-10T07:04:05.202Z,49.25
2022-11-10T07:06:06.956Z,46.13
2022-11-10T07:08:17.497Z,46.13
2022-11-10T07:10:19.312Z,44.30
2022-11-10T07:12:21.663Z,46.53
2022-11-10T07:14:23.477Z,43.75
2022-11-10T07:16:25.305Z,47.20
2022-11-10T07:18:27.432Z,48.10
2022-11-10T07:20:30.383Z,45.42
2022-11-10T07:24:34.937Z,44.63
2022-11-10T07:26:36.785Z,43.88
2022-11-10T07:28:39.093Z,45.83
2022-11-10T07:30:41.675Z,44.45
2022-11-10T07:32:43.859Z,42.97
2022-11-10T07:34:46.034Z,44.27
2022-11-10T07:36:48.412Z,44.05
2022-11-10T07:38:50.210Z,44.38
2022-11-10T07:40:53.896Z,43.05
2022-11-10T07:42:56.142Z,43.13
2022-11-10T07:44:57.960Z,42.60
2022-11-10T07:46:59.969Z,44.40
2022-11-10T07:49:02.202Z,41.83
2022-11-10T07:51:04.598Z,41.90
2022-11-10T07:53:08.694Z,43.40
2022-11-10T07:55:11.040Z,43.05
2022-11-10T07:57:12.927Z,42.40
2022-11-10T07:59:14.809Z,41.40
2022-11-10T08:01:17.079Z,41.47
2022-11-10T08:03:21.782Z,41.70
2022-11-10T08:05:24.012Z,40.45
2022-11-10T08:07:26.236Z,40.83
2022-11-10T08:09:28.449Z,42.38
2022-11-10T08:11:30.370Z,41.40
2022-11-10T08:13:32.588Z,41.08
2022-11-10T08:15:35.070Z,42.67
2022-11-10T08:17:36.969Z,41.80
2022-11-10T08:19:39.098Z,41.42
2022-11-10T08:21:40.926Z,41.80
2022-11-10T08:23:42.902Z,40.90
2022-11-10T08:25:46.848Z,41.28
2022-11-10T08:27:48.735Z,41.28
2022-11-10T08:29:50.594Z,41.05
2022-11-10T08:31:53.273Z,40.67
2022-11-10T08:33:55.088Z,40.45
2022-11-10T08:35:56.927Z,39.95
2022-11-10T08:37:59.044Z,39.90
2022-11-10T08:40:00.850Z,39.00
2022-11-10T08:42:02.825Z,38.90
2022-11-10T08:44:08.167Z,40.05
2022-11-10T08:46:12.658Z,38.95
2022-11-10T08:48:16.832Z,39.38
2022-11-10T08:50:19.110Z,37.35
2022-11-10T08:52:20.927Z,36.63
2022-11-10T08:54:22.779Z,37.55
2022-11-10T08:56:24.924Z,35.70
2022-11-10T08:58:26.814Z,37.65
2022-11-10T09:00:30.708Z,35.70
2022-11-10T09:02:32.908Z,36.78
2022-11-10T09:04:34.782Z,37.35
2022-11-10T09:06:36.630Z,34.88
2022-11-10T09:08:38.899Z,35.97
2022-11-10T09:10:51.100Z,36.20
2022-11-10T09:12:52.978Z,36.13
2022-11-10T09:14:55.825Z,36.90
2022-11-10T09:16:57.658Z,38.38
2022-11-10T09:18:59.498Z,35.88
2022-11-10T09:21:03.577Z,36.30
2022-11-10T09:23:13.958Z,38.25
2022-11-10T09:25:16.133Z,37.15
2022-11-10T09:27:18.582Z,36.08
2022-11-10T09:29:21.295Z,37.65
2022-11-10T09:31:23.599Z,35.70
2022-11-10T09:33:26.325Z,36.35
2022-11-10T09:35:28.510Z,36.75
2022-11-10T09:37:30.823Z,36.17
2022-11-10T09:39:33.296Z,36.35
2022-11-10T09:41:40.196Z,36.50
2022-11-10T09:43:58.445Z,36.10
2022-11-10T09:46:04.930Z,35.50
2022-11-10T09:48:31.254Z,36.28
2022-11-10T09:51:11.013Z,34.75
2022-11-10T09:53:21.411Z,35.13
2022-11-10T09:55:52.301Z,34.67
2022-11-10T09:57:57.111Z,35.00
2022-11-10T09:59:59.692Z,34.25
2022-11-10T10:02:16.427Z,34.95
2022-11-10T10:04:56.004Z,36.92
2022-11-10T10:07:22.932Z,35.58
2022-11-10T10:10:00.079Z,35.00
2022-11-10T10:12:28.270Z,33.42
2022-11-10T10:14:58.595Z,35.53
2022-11-10T10:17:04.463Z,32.55
2022-11-10T10:19:14.015Z,33.80
2022-11-10T10:21:49.298Z,33.67
2022-11-10T10:24:15.240Z,34.97
2022-11-10T10:26:21.676Z,34.38
2022-11-10T10:28:23.958Z,33.05
2022-11-10T10:30:26.090Z,34.15
2022-11-10T10:32:28.879Z,33.28
2022-11-10T10:34:34.612Z,31.00
2022-11-10T10:36:36.504Z,30.48
2022-11-10T10:38:40.221Z,31.17
2022-11-10T10:40:44.288Z,30.65
2022-11-10T10:42:46.605Z,30.85
2022-11-10T10:45:18.490Z,29.45
2022-11-10T10:47:36.149Z,28.35
2022-11-10T10:49:37.967Z,28.65
2022-11-10T10:51:40.449Z,29.08
2022-11-10T10:53:47.694Z,29.35
2022-11-10T10:56:02.210Z,28.75
2022-11-10T10:58:20.327Z,29.45
2022-11-10T11:00:23.544Z,28.10
2022-11-10T11:02:29.861Z,28.48
2022-11-10T11:04:37.032Z,27.88
2022-11-10T11:06:39.003Z,27.02
2022-11-10T11:08:58.172Z,26.17
2022-11-10T11:11:11.571Z,26.48
2022-11-10T11:13:27.251Z,26.60
2022-11-10T11:15:30.465Z,25.63
2022-11-10T11:17:32.689Z,26.08
2022-11-10T11:19:37.512Z,25.40
2022-11-10T11:21:50.638Z,26.75
2022-11-10T11:24:10.900Z,25.33
2022-11-10T11:26:50.432Z,24.05
2022-11-10T11:29:21.618Z,23.08
2022-11-10T11:31:43.222Z,24.92
2022-11-10T11:34:10.087Z,24.35
2022-11-10T11:36:46.821Z,24.33
2022-11-10T11:39:04.298Z,24.45
2022-11-10T11:41:30.690Z,24.02
2022-11-10T11:43:57.688Z,24.33
2022-11-10T11:46:12.580Z,23.73
2022-11-10T11:48:39.022Z,23.90
2022-11-10T11:50:50.596Z,23.90
2022-11-10T11:53:19.009Z,23.85
2022-11-10T11:55:34.071Z,24.42
2022-11-10T11:57:44.193Z,23.83
2022-11-10T12:00:06.018Z,23.25
2022-11-10T12:02:50.100Z,24.77
2022-11-10T12:05:13.302Z,23.52
2022-11-10T12:07:35.652Z,24.55
2022-11-10T12:09:46.185Z,22.98
2022-11-10T12:12:13.782Z,22.88
2022-11-10T12:14:34.934Z,22.50
2022-11-10T12:16:38.698Z,22.40
2022-11-10T12:19:22.406Z,22.80
2022-11-10T12:21:28.195Z,21.23
2022-11-10T12:23:47.954Z,22.58
2022-11-10T12:25:59.851Z,20.70
2022-11-10T12:28:14.254Z,20.33
2022-11-10T12:30:17.769Z,21.48
2022-11-10T12:32:28.347Z,21.42
2022-11-10T12:34:48.189Z,21.02
2022-11-10T12:36:51.794Z,21.67
2022-11-10T12:39:01.340Z,22.40
2022-11-10T12:41:11.139Z,20.83
2022-11-10T12:43:44.066Z,21.55
2022-11-10T12:45:51.218Z,20.58
2022-11-10T12:47:54.486Z,19.70
2022-11-10T12:50:11.652Z,21.10
2022-11-10T12:52:13.779Z,20.00
2022-11-10T12:54:17.917Z,20.60
2022-11-10T12:56:31.897Z,18.95
2022-11-10T12:58:34.175Z,20.75
2022-11-10T13:00:44.114Z,20.27
2022-11-10T13:02:46.951Z,20.45
2022-11-10T13:05:10.055Z,19.67
2022-11-10T13:07:13.797Z,19.13
2022-11-10T13:09:29.442Z,19.20
2022-11-10T13:11:34.804Z,17.88
2022-11-10T13:13:59.457Z,17.88
2022-11-10T13:16:01.838Z,18.38
2022-11-10T13:18:05.613Z,18.83
2022-11-10T13:20:39.305Z,18.55
2022-11-10T13:22:41.668Z,18.27
2022-11-10T13:24:44.494Z,18.00
2022-11-10T13:26:49.796Z,18.38
2022-11-10T13:28:51.603Z,17.83
2022-11-10T13:30:53.773Z,18.50
2022-11-10T13:33:15.648Z,18.48
2022-11-10T13:35:29.736Z,17.25
2022-11-10T13:37:34.671Z,19.05
2022-11-10T13:39:36.683Z,18.80
2022-11-10T13:41:48.460Z,18.65
2022-11-10T13:43:53.251Z,19.38
2022-11-10T13:46:03.677Z,20.00
2022-11-10T13:48:11.549Z,20.20
2022-11-10T13:50:28.762Z,19.20
2022-11-10T13:52:43.028Z,20.80
2022-11-10T13:54:58.851Z,21.02
2022-11-10T13:57:11.816Z,19.33
2022-11-10T13:59:28.961Z,20.52
2022-11-10T14:01:30.987Z,20.67
2022-11-10T14:03:45.387Z,20.60
2022-11-10T14:06:04.778Z,20.85
2022-11-10T14:08:09.596Z,20.65
2022-11-10T14:10:17.125Z,21.30
2022-11-10T14:12:28.725Z,20.52
2022-11-10T14:14:35.699Z,20.60
2022-11-10T14:16:42.314Z,20.88
2022-11-10T14:19:22.964Z,21.80
2022-11-10T14:21:33.522Z,20.58
2022-11-10T14:23:45.505Z,20.38
2022-11-10T14:25:55.982Z,20.45
2022-11-10T14:27:58.624Z,20.45
2022-11-10T14:30:24.672Z,19.90
2022-11-10T14:32:27.011Z,20.48
2022-11-10T14:34:30.635Z,21.17
2022-11-10T14:36:33.072Z,21.80
2022-11-10T14:38:37.206Z,21.15
2022-11-10T14:40:41.941Z,22.88
2022-11-10T14:42:45.857Z,22.63
2022-11-10T14:44:48.793Z,21.67
2022-11-10T14:46:51.328Z,21.65
2022-11-10T14:51:07.211Z,22.27
2022-11-10T14:53:20.879Z,24.00
2022-11-10T14:55:27.785Z,23.45
2022-11-10T14:57:29.828Z,24.70
2022-11-10T14:59:31.885Z,25.55
2022-11-10T15:01:38.401Z,24.20
2022-11-10T15:03:42.573Z,24.55
2022-11-10T15:05:44.829Z,25.25
2022-11-10T15:07:47.661Z,25.23
2022-11-10T15:10:30.932Z,24.88
2022-11-10T15:12:35.852Z,24.63
2022-11-10T15:14:45.650Z,25.05
2022-11-10T15:17:04.253Z,26.05
2022-11-10T15:19:26.874Z,26.52
2022-11-10T15:21:34.054Z,26.33
2022-11-10T15:23:40.911Z,27.52
2022-11-10T15:25:42.857Z,26.17
2022-11-10T15:28:00.884Z,27.00
2022-11-10T15:30:19.949Z,26.50
2022-11-10T15:32:24.973Z,25.73
2022-11-10T15:35:06.398Z,26.88
2022-11-10T15:37:31.216Z,26.83
2022-11-10T15:39:33.937Z,26.08
2022-11-10T15:41:36.969Z,25.47
2022-11-10T15:45:43.407Z,25.10
2022-11-10T15:47:46.475Z,25.23
2022-11-10T15:49:48.523Z,25.13
2022-11-10T15:51:53.066Z,24.70
2022-11-10T15:53:55.136Z,26.70
2022-11-10T15:55:57.402Z,26.40
2022-11-10T15:57:59.519Z,26.20
2022-11-10T16:00:01.736Z,25.25
2022-11-10T16:02:25.347Z,26.40
2022-11-10T16:04:27.607Z,24.65
2022-11-10T16:06:30.807Z,24.95
2022-11-10T16:08:34.766Z,25.60
2022-11-10T16:10:37.453Z,26.15
2022-11-10T16:12:39.417Z,25.60
2022-11-10T16:14:45.490Z,26.20
2022-11-10T16:16:47.911Z,25.33
2022-11-10T16:18:51.399Z,24.33
2022-11-10T16:20:53.533Z,23.35
2022-11-10T16:22:55.999Z,23.70
2022-11-10T16:24:57.795Z,23.92
2022-11-10T16:26:59.811Z,24.77
2022-11-10T16:29:02.153Z,24.08
2022-11-10T16:31:08.418Z,24.05
2022-11-10T16:33:18.342Z,25.13
2022-11-10T16:35:21.009Z,24.35
2022-11-10T16:37:22.868Z,22.77
2022-11-10T16:39:25.348Z,23.27
2022-11-10T16:41:27.621Z,24.27
2022-11-10T16:43:31.092Z,24.95
2022-11-10T16:45:33.849Z,24.23
2022-11-10T16:47:36.011Z,24.40
2022-11-10T16:49:44.052Z,24.70
2022-11-10T16:51:49.007Z,24.65
2022-11-10T16:53:53.190Z,25.17
2022-11-10T16:55:55.376Z,23.27
2022-11-10T16:57:57.776Z,25.50
2022-11-10T17:00:00.247Z,25.23
2022-11-10T17:02:02.167Z,23.27
2022-11-10T17:04:10.224Z,23.70
2022-11-10T17:06:14.200Z,25.35
2022-11-10T17:08:23.234Z,23.05
2022-11-10T17:10:25.230Z,28.20
2022-11-10T17:12:27.596Z,24.67
2022-11-10T17:14:29.387Z,23.93
2022-11-10T17:16:35.770Z,24.42
2022-11-10T17:18:38.150Z,24.35
2022-11-10T17:20:41.995Z,24.10
2022-11-10T17:22:44.245Z,25.45
2022-11-10T17:24:56.152Z,25.10
2022-11-10T17:26:58.091Z,26.48
2022-11-10T17:29:01.062Z,27.60
2022-11-10T17:31:03.626Z,27.15
2022-11-10T17:33:06.001Z,27.00
2022-11-10T17:35:08.328Z,27.05
2022-11-10T17:37:13.283Z,27.77
2022-11-10T17:39:16.765Z,26.15
2022-11-10T17:41:20.211Z,28.17
2022-11-10T17:43:23.826Z,32.38
2022-11-10T17:45:28.115Z,28.52
2022-11-10T17:47:30.193Z,28.60
2022-11-10T17:49:32.608Z,29.65
2022-11-10T17:51:36.052Z,33.53
2022-11-10T17:53:38.086Z,30.33
2022-11-10T17:55:40.271Z,30.60
2022-11-10T17:57:42.562Z,29.65
2022-11-10T17:59:44.365Z,30.08
2022-11-10T18:01:46.826Z,29.90
2022-11-10T18:03:50.104Z,31.67
2022-11-10T18:05:52.742Z,29.95
2022-11-10T18:07:55.292Z,31.00
2022-11-10T18:09:57.285Z,30.92
2022-11-10T18:11:59.119Z,31.60
2022-11-10T18:14:02.391Z,31.55
2022-11-10T18:16:05.481Z,30.17
2022-11-10T18:18:11.183Z,31.48
2022-11-10T18:20:14.810Z,31.58
2022-11-10T18:22:16.733Z,31.60
2022-11-10T18:24:18.579Z,31.63
2022-11-10T18:26:20.740Z,32.53
2022-11-10T18:28:22.542Z,33.53
2022-11-10T18:30:24.399Z,34.45
2022-11-10T18:32:26.919Z,34.22
2022-11-10T18:34:28.753Z,34.37
2022-11-10T18:36:30.548Z,35.63
2022-11-10T18:38:32.911Z,35.40
2022-11-10T18:40:34.814Z,34.22
2022-11-10T18:42:36.803Z,36.47
2022-11-10T18:44:39.665Z,36.05
2022-11-10T18:46:41.810Z,35.67
2022-11-10T18:48:45.776Z,36.50
2022-11-10T18:50:47.949Z,35.95
2022-11-10T18:52:49.810Z,37.47
2022-11-10T18:54:51.621Z,38.63
2022-11-10T18:56:54.350Z,37.58
2022-11-10T18:58:57.055Z,38.53
2022-11-10T19:01:06.657Z,38.15
2022-11-10T19:03:09.048Z,39.90
2022-11-10T19:05:11.037Z,39.37
2022-11-10T19:07:12.963Z,39.28
2022-11-10T19:09:15.542Z,41.15
2022-11-10T19:11:20.104Z,41.60
2022-11-10T19:13:23.495Z,40.15
2022-11-10T19:15:25.989Z,41.85
2022-11-10T19:17:27.830Z,40.38
2022-11-10T19:19:29.727Z,42.65
2022-11-10T19:21:32.090Z,48.50
2022-11-10T19:23:34.019Z,41.47
2022-11-10T19:25:35.999Z,40.95
2022-11-10T19:27:38.258Z,41.72
2022-11-10T19:29:40.314Z,42.20
2022-11-10T19:31:42.391Z,40.92
2022-11-10T19:33:46.527Z,41.95
2022-11-10T19:35:48.319Z,40.90
2022-11-10T19:37:53.850Z,41.03
2022-11-10T19:39:56.029Z,40.80
2022-11-10T19:41:57.791Z,40.50
2022-11-10T19:44:00.341Z,40.40
2022-11-10T19:46:04.269Z,41.35
2022-11-10T19:48:06.097Z,40.00
2022-11-10T19:50:08.458Z,39.53
2022-11-10T19:52:10.703Z,39.45
2022-11-10T19:54:13.679Z,40.63
2022-11-10T19:58:19.443Z,38.78
2022-11-10T20:00:21.370Z,38.50
2022-11-10T20:02:23.365Z,39.75
2022-11-10T20:04:26.811Z,41.00
2022-11-10T20:08:31.003Z,40.35
2022-11-10T20:10:33.296Z,40.30
2022-11-10T20:12:35.109Z,40.10
2022-11-10T20:14:36.918Z,41.05
2022-11-10T20:16:39.087Z,41.30
2022-11-10T20:18:41.677Z,41.47
2022-11-10T20:20:43.459Z,41.97
2022-11-10T20:22:45.801Z,41.67
2022-11-10T20:24:51.154Z,42.33
2022-11-10T20:26:53.126Z,41.90
2022-11-10T20:28:55.382Z,41.72
2022-11-10T20:31:00.891Z,42.22
2022-11-10T20:33:05.085Z,41.58
2022-11-10T20:35:07.423Z,40.85
2022-11-10T20:37:09.226Z,41.17
2022-11-10T20:39:11.186Z,39.97
2022-11-10T20:41:19.958Z,42.75
2022-11-10T20:43:22.172Z,40.80
2022-11-10T20:45:24.302Z,39.25
2022-11-10T20:47:28.738Z,40.08
2022-11-10T20:49:31.015Z,40.05
2022-11-10T20:51:32.847Z,38.88
2022-11-10T20:53:35.052Z,39.20
2022-11-10T20:55:53.190Z,38.87
2022-11-10T20:57:55.796Z,38.20
2022-11-10T20:59:58.063Z,38.58
2022-11-10T21:02:00.025Z,39.17
2022-11-10T21:04:02.631Z,39.15
2022-11-10T21:06:06.195Z,39.67
2022-11-10T21:08:08.130Z,40.42
2022-11-10T21:10:10.030Z,39.17
2022-11-10T21:12:31.594Z,38.17
2022-11-10T21:14:33.467Z,40.10
2022-11-10T21:16:35.359Z,40.78
2022-11-10T21:18:37.909Z,40.42
2022-11-10T21:20:39.688Z,39.75
2022-11-10T21:22:41.483Z,38.05
2022-11-10T21:24:43.702Z,40.30
2022-11-10T21:26:45.488Z,39.30
2022-11-10T21:28:47.673Z,38.72
2022-11-10T21:30:50.710Z,41.28
2022-11-10T21:32:52.525Z,43.75
2022-11-10T21:34:54.348Z,40.83
2022-11-10T21:36:56.499Z,41.83
2022-11-10T21:38:59.159Z,41.75
2022-11-10T21:41:00.958Z,41.25
2022-11-10T21:43:03.740Z,40.13
2022-11-10T21:45:06.650Z,42.25
2022-11-10T21:47:09.912Z,42.00
2022-11-10T21:49:12.134Z,40.95
2022-11-10T21:51:16.552Z,43.05
2022-11-10T21:53:18.357Z,44.08
2022-11-10T21:55:20.758Z,43.13
2022-11-10T21:57:22.574Z,42.63
2022-11-10T21:59:24.356Z,42.83
2022-11-10T22:01:26.621Z,41.67
2022-11-10T22:03:29.642Z,40.85
2022-11-10T22:07:38.297Z,41.28
2022-11-10T22:09:58.662Z,39.28
2022-11-10T22:12:18.802Z,40.45
2022-11-10T22:14:39.714Z,40.47
2022-11-10T22:17:08.283Z,40.58
2022-11-10T22:19:10.089Z,39.47
2022-11-10T22:21:12.708Z,38.75
2022-11-10T22:23:14.692Z,36.92
2022-11-10T22:25:16.488Z,37.35
2022-11-10T22:27:18.637Z,37.33
2022-11-10T22:29:21.804Z,37.42
2022-11-10T22:31:23.797Z,34.53
2022-11-10T22:33:28.828Z,37.20
2022-11-10T22:35:46.064Z,36.08
2022-11-10T22:37:47.832Z,34.20
2022-11-10T22:40:08.875Z,35.05
2022-11-10T22:42:32.118Z,33.28
2022-11-10T22:44:33.969Z,33.70
2022-11-10T22:46:48.105Z,33.08
2022-11-10T22:48:50.006Z,30.30
2022-11-10T22:50:59.452Z,32.05
2022-11-10T22:53:01.601Z,31.20
2022-11-10T22:55:03.484Z,32.13
2022-11-10T22:57:05.460Z,31.77
2022-11-10T22:59:08.070Z,30.92
2022-11-10T23:01:11.378Z,30.00
2022-11-10T23:05:16.549Z,31.70
2022-11-10T23:07:18.357Z,29.90
2022-11-10T23:09:20.343Z,30.33
2022-11-10T23:11:25.539Z,30.17
2022-11-10T23:13:27.994Z,29.70
2022-11-10T23:15:34.664Z,31.30
2022-11-10T23:17:36.846Z,29.60
2022-11-10T23:19:38.678Z,31.95
2022-11-10T23:21:40.521Z,31.70
2022-11-10T23:23:43.585Z,31.52
2022-11-10T23:25:55.516Z,31.30
2022-11-10T23:27:57.295Z,29.92
2022-11-10T23:29:59.444Z,32.35
2022-11-10T23:32:01.276Z,31.88
2022-11-10T23:34:03.167Z,31.70
2022-11-10T23:36:06.580Z,32.50
2022-11-10T23:40:10.841Z,30.88
2022-11-10T23:42:13.015Z,33.35
2022-11-10T23:44:14.783Z,33.13
2022-11-10T23:46:16.550Z,31.73
2022-11-10T23:48:19.500Z,34.00
2022-11-10T23:50:21.367Z,33.45
2022-11-10T23:52:23.134Z,31.75
2022-11-10T23:54:25.306Z,32.07
2022-11-10T23:56:27.111Z,33.95
2022-11-10T23:58:29.786Z,33.25
